createdAt,value
2022-08-21T00:01:47.186Z,21.30
2022-08-21T00:04:22.154Z,21.30
2022-08-21T00:06:50.857Z,21.20
2022-08-21T00:09:19.958Z,21.20
2022-08-21T00:11:48.760Z,21.20
2022-08-21T00:14:17.686Z,21.10
2022-08-21T00:16:45.609Z,21.00
2022-08-21T00:19:13.674Z,21.00
2022-08-21T00:21:44.454Z,21.00
2022-08-21T00:24:13.365Z,20.90
2022-08-21T00:26:41.461Z,20.90
2022-08-21T00:29:09.329Z,20.80
2022-08-21T00:31:37.648Z,20.80
2022-08-21T00:34:05.923Z,20.70
2022-08-21T00:36:33.821Z,20.70
2022-08-21T00:39:03.769Z,20.70
2022-08-21T00:41:38.157Z,20.60
2022-08-21T00:44:07.106Z,20.50
2022-08-21T00:46:35.190Z,20.50
2022-08-21T00:49:03.173Z,20.50
2022-08-21T00:51:38.700Z,20.40
2022-08-21T00:54:15.476Z,20.40
2022-08-21T00:56:49.959Z,20.30
2022-08-21T00:59:20.427Z,20.20
2022-08-21T01:01:48.984Z,20.20
2022-08-21T01:04:17.273Z,20.20
2022-08-21T01:06:45.562Z,20.10
2022-08-21T01:09:16.004Z,20.10
2022-08-21T01:11:44.314Z,20.00
2022-08-21T01:14:13.335Z,20.00
2022-08-21T01:16:45.061Z,19.90
2022-08-21T01:19:13.858Z,19.90
2022-08-21T01:21:44.087Z,19.80
2022-08-21T01:24:13.317Z,19.80
2022-08-21T01:26:42.176Z,19.80
2022-08-21T01:29:17.260Z,19.70
2022-08-21T01:31:45.745Z,19.70
2022-08-21T01:34:14.294Z,19.60
2022-08-21T01:36:44.009Z,19.60
2022-08-21T01:39:12.053Z,19.50
2022-08-21T01:41:39.997Z,19.50
2022-08-21T01:44:07.891Z,19.50
2022-08-21T01:46:36.942Z,19.40
2022-08-21T01:49:05.486Z,19.40
2022-08-21T01:51:33.660Z,19.30
2022-08-21T01:54:03.002Z,19.30
2022-08-21T01:56:32.041Z,19.30
2022-08-21T01:58:59.908Z,19.30
2022-08-21T02:01:27.848Z,19.20
2022-08-21T02:03:55.778Z,19.20
2022-08-21T02:06:23.689Z,19.10
2022-08-21T02:08:52.143Z,19.10
2022-08-21T02:11:21.812Z,19.10
2022-08-21T02:13:49.750Z,19.00
2022-08-21T02:16:19.374Z,19.00
2022-08-21T02:18:47.814Z,19.00
2022-08-21T02:21:15.856Z,18.90
2022-08-21T02:23:43.751Z,18.90
2022-08-21T02:26:12.248Z,18.90
2022-08-21T02:28:41.611Z,18.90
2022-08-21T02:31:09.801Z,18.80
2022-08-21T02:33:37.752Z,18.80
2022-08-21T02:36:07.346Z,18.70
2022-08-21T02:38:38.870Z,18.70
2022-08-21T02:41:08.513Z,18.70
2022-08-21T02:43:36.609Z,18.60
2022-08-21T02:46:10.866Z,18.50
2022-08-21T02:48:39.760Z,18.50
2022-08-21T02:51:10.225Z,18.50
2022-08-21T02:53:38.729Z,18.50
2022-08-21T02:56:10.462Z,18.40
2022-08-21T02:58:41.137Z,18.40
2022-08-21T03:01:11.382Z,18.30
2022-08-21T03:03:41.860Z,18.30
2022-08-21T03:06:11.581Z,18.30
2022-08-21T03:08:40.427Z,18.30
2022-08-21T03:11:10.265Z,18.20
2022-08-21T03:13:39.913Z,18.20
2022-08-21T03:16:10.708Z,18.20
2022-08-21T03:18:39.208Z,18.10
2022-08-21T03:21:08.297Z,18.10
2022-08-21T03:23:36.505Z,18.10
2022-08-21T03:26:05.637Z,18.10
2022-08-21T03:28:36.241Z,18.00
2022-08-21T03:31:04.126Z,18.00
2022-08-21T03:33:33.405Z,18.00
2022-08-21T03:36:05.308Z,17.90
2022-08-21T03:38:35.246Z,17.80
2022-08-21T03:41:03.958Z,17.80
2022-08-21T03:43:32.669Z,17.80
2022-08-21T03:46:02.066Z,17.70
2022-08-21T03:48:29.971Z,17.70
2022-08-21T03:50:59.301Z,17.60
2022-08-21T03:53:27.617Z,17.60
2022-08-21T03:55:56.283Z,17.60
2022-08-21T03:58:26.036Z,17.60
2022-08-21T04:00:57.406Z,17.60
2022-08-21T04:03:26.414Z,17.50
2022-08-21T04:05:54.604Z,17.50
2022-08-21T04:08:24.057Z,17.50
2022-08-21T04:10:54.250Z,17.50
2022-08-21T04:13:22.691Z,17.40
2022-08-21T04:15:50.929Z,17.40
2022-08-21T04:18:19.258Z,17.30
2022-08-21T04:20:50.693Z,17.30
2022-08-21T04:23:23.679Z,17.20
2022-08-21T04:25:56.501Z,17.20
2022-08-21T04:28:28.775Z,17.10
2022-08-21T04:30:57.857Z,17.10
2022-08-21T04:33:26.260Z,17.10
2022-08-21T04:35:54.134Z,17.10
2022-08-21T04:38:22.422Z,17.10
2022-08-21T04:40:50.914Z,17.10
2022-08-21T04:43:22.395Z,17.00
2022-08-21T04:45:51.283Z,17.00
2022-08-21T04:48:21.192Z,17.00
2022-08-21T04:50:54.214Z,17.00
2022-08-21T04:53:26.359Z,16.90
2022-08-21T04:55:56.594Z,16.90
2022-08-21T04:58:28.138Z,16.90
2022-08-21T05:00:57.798Z,16.80
2022-08-21T05:03:26.129Z,16.80
2022-08-21T05:05:54.387Z,16.80
2022-08-21T05:08:25.879Z,16.80
2022-08-21T05:10:57.062Z,16.70
2022-08-21T05:13:29.948Z,16.70
2022-08-21T05:15:58.270Z,16.80
2022-08-21T05:18:26.438Z,16.80
2022-08-21T05:20:54.397Z,16.70
2022-08-21T05:23:22.345Z,16.70
2022-08-21T05:25:51.193Z,16.70
2022-08-21T05:28:19.189Z,16.70
2022-08-21T05:30:49.286Z,16.70
2022-08-21T05:33:17.258Z,16.70
2022-08-21T05:35:45.170Z,16.70
2022-08-21T05:38:17.826Z,16.60
2022-08-21T05:40:47.402Z,16.60
2022-08-21T05:43:15.466Z,16.70
2022-08-21T05:45:44.498Z,16.70
2022-08-21T05:48:16.515Z,16.70
2022-08-21T05:50:45.655Z,16.70
2022-08-21T05:53:14.723Z,16.70
2022-08-21T05:55:46.323Z,16.70
2022-08-21T05:58:15.487Z,16.70
2022-08-21T06:00:43.441Z,16.80
2022-08-21T06:03:18.050Z,16.80
2022-08-21T06:05:46.552Z,16.80
2022-08-21T06:08:15.932Z,16.90
2022-08-21T06:10:44.046Z,16.90
2022-08-21T06:13:12.626Z,16.90
2022-08-21T06:15:40.487Z,16.90
2022-08-21T06:18:08.868Z,17.00
2022-08-21T06:20:38.598Z,17.00
2022-08-21T06:23:06.739Z,17.00
2022-08-21T06:25:34.703Z,17.00
2022-08-21T06:28:04.348Z,17.10
2022-08-21T06:30:32.255Z,17.10
2022-08-21T06:33:00.407Z,17.20
2022-08-21T06:35:29.974Z,17.10
2022-08-21T06:37:59.778Z,17.20
2022-08-21T06:40:29.669Z,17.20
2022-08-21T06:42:58.386Z,17.30
2022-08-21T06:45:28.347Z,17.30
2022-08-21T06:48:00.720Z,17.30
2022-08-21T06:50:29.294Z,17.40
2022-08-21T06:53:07.937Z,17.40
2022-08-21T06:55:36.202Z,17.40
2022-08-21T06:58:05.379Z,17.50
2022-08-21T07:00:34.554Z,17.50
2022-08-21T07:03:02.741Z,17.60
2022-08-21T07:05:32.082Z,17.60
2022-08-21T07:08:00.448Z,17.60
2022-08-21T07:10:30.901Z,17.70
2022-08-21T07:13:00.094Z,17.70
2022-08-21T07:15:30.382Z,17.80
2022-08-21T07:17:59.096Z,17.90
2022-08-21T07:20:27.387Z,17.90
2022-08-21T07:22:55.815Z,18.00
2022-08-21T07:25:23.978Z,18.00
2022-08-21T07:27:53.213Z,18.10
2022-08-21T07:30:21.695Z,18.10
2022-08-21T07:32:50.795Z,18.20
2022-08-21T07:35:19.621Z,18.20
2022-08-21T07:37:47.997Z,18.30
2022-08-21T07:40:16.637Z,18.40
2022-08-21T07:42:47.050Z,18.40
2022-08-21T07:45:16.615Z,18.50
2022-08-21T07:47:44.503Z,18.50
2022-08-21T07:50:13.542Z,18.60
2022-08-21T07:52:42.732Z,18.60
2022-08-21T07:55:13.190Z,18.70
2022-08-21T07:57:41.309Z,18.80
2022-08-21T08:00:12.276Z,18.90
2022-08-21T08:02:42.134Z,18.90
2022-08-21T08:05:12.698Z,19.00
2022-08-21T08:07:41.146Z,19.00
2022-08-21T08:10:10.435Z,19.10
2022-08-21T08:12:40.615Z,19.20
2022-08-21T08:15:13.394Z,19.30
2022-08-21T08:17:43.074Z,19.40
2022-08-21T08:20:17.990Z,19.50
2022-08-21T08:22:50.162Z,19.50
2022-08-21T08:25:19.288Z,19.60
2022-08-21T08:27:47.183Z,19.60
2022-08-21T08:30:17.311Z,19.70
2022-08-21T08:32:46.861Z,19.80
2022-08-21T08:35:15.639Z,19.90
2022-08-21T08:37:46.764Z,19.90
2022-08-21T08:40:25.578Z,20.00
2022-08-21T08:42:53.449Z,20.10
2022-08-21T08:45:25.178Z,20.10
2022-08-21T08:47:59.962Z,20.20
2022-08-21T08:50:33.465Z,20.30
2022-08-21T08:53:06.310Z,20.40
2022-08-21T08:55:37.751Z,20.50
2022-08-21T08:58:06.375Z,20.60
2022-08-21T09:00:35.283Z,20.60
2022-08-21T09:03:05.435Z,20.70
2022-08-21T09:05:44.522Z,20.80
2022-08-21T09:08:50.008Z,20.90
2022-08-21T09:11:28.163Z,21.00
2022-08-21T09:14:10.123Z,21.10
2022-08-21T09:16:47.162Z,21.20
2022-08-21T09:19:29.093Z,21.30
2022-08-21T09:22:05.376Z,21.30
2022-08-21T09:24:36.498Z,21.40
2022-08-21T09:27:10.259Z,21.40
2022-08-21T09:29:41.159Z,21.50
2022-08-21T09:32:15.421Z,21.60
2022-08-21T09:34:58.527Z,21.70
2022-08-21T09:37:27.196Z,21.70
2022-08-21T09:39:55.140Z,21.80
2022-08-21T09:42:26.591Z,21.80
2022-08-21T09:45:11.393Z,21.90
2022-08-21T09:47:39.373Z,22.00
2022-08-21T09:50:16.032Z,22.10
2022-08-21T09:52:52.851Z,22.20
2022-08-21T09:55:43.250Z,22.30
2022-08-21T09:58:12.289Z,22.40
2022-08-21T10:00:40.975Z,22.40
2022-08-21T10:03:21.295Z,22.50
2022-08-21T10:05:57.402Z,22.60
2022-08-21T10:08:27.756Z,22.70
2022-08-21T10:10:59.344Z,22.80
2022-08-21T10:13:36.014Z,22.80
2022-08-21T10:16:26.624Z,22.80
2022-08-21T10:19:04.633Z,22.80
2022-08-21T10:21:42.882Z,23.00
2022-08-21T10:24:21.368Z,23.10
2022-08-21T10:27:07.074Z,23.20
2022-08-21T10:29:46.706Z,23.20
2022-08-21T10:32:26.848Z,23.30
2022-08-21T10:35:04.141Z,23.40
2022-08-21T10:37:50.959Z,23.50
2022-08-21T10:40:27.161Z,23.60
2022-08-21T10:43:07.434Z,23.60
2022-08-21T10:45:48.201Z,23.70
2022-08-21T10:48:24.505Z,23.70
2022-08-21T10:50:56.328Z,23.80
2022-08-21T10:53:38.303Z,23.80
2022-08-21T10:56:17.007Z,23.80
2022-08-21T10:58:51.821Z,23.80
2022-08-21T11:01:25.692Z,23.90
2022-08-21T11:04:01.187Z,24.00
2022-08-21T11:06:34.430Z,24.00
2022-08-21T11:09:16.134Z,24.20
2022-08-21T11:11:59.084Z,24.30
2022-08-21T11:14:37.138Z,24.40
2022-08-21T11:17:12.006Z,24.60
2022-08-21T11:19:49.965Z,24.60
2022-08-21T11:22:23.313Z,24.60
2022-08-21T11:24:58.818Z,24.60
2022-08-21T11:27:30.453Z,24.70
2022-08-21T11:30:02.429Z,24.70
2022-08-21T11:32:53.152Z,24.80
2022-08-21T11:35:30.929Z,24.80
2022-08-21T11:38:10.397Z,24.90
2022-08-21T11:40:56.455Z,24.90
2022-08-21T11:43:33.457Z,24.90
2022-08-21T11:46:12.352Z,25.00
2022-08-21T11:48:48.680Z,25.10
2022-08-21T11:51:22.747Z,25.30
2022-08-21T11:53:56.065Z,25.40
2022-08-21T11:56:29.069Z,25.40
2022-08-21T11:59:01.419Z,25.50
2022-08-21T12:01:37.025Z,25.60
2022-08-21T12:04:08.944Z,25.60
2022-08-21T12:06:38.912Z,25.70
2022-08-21T12:09:09.595Z,25.80
2022-08-21T12:11:49.200Z,25.90
2022-08-21T12:14:19.592Z,26.00
2022-08-21T12:16:49.845Z,26.10
2022-08-21T12:19:32.566Z,26.10
2022-08-21T12:22:10.819Z,26.20
2022-08-21T12:24:41.260Z,26.10
2022-08-21T12:27:26.457Z,26.10
2022-08-21T12:29:57.438Z,26.10
2022-08-21T12:32:29.870Z,26.10
2022-08-21T12:35:04.535Z,26.10
2022-08-21T12:37:43.443Z,26.20
2022-08-21T12:40:20.166Z,26.30
2022-08-21T12:42:58.620Z,26.40
2022-08-21T12:45:32.747Z,26.50
2022-08-21T12:48:06.599Z,26.70
2022-08-21T12:50:40.167Z,26.70
2022-08-21T12:53:18.524Z,26.70
2022-08-21T12:55:48.869Z,26.80
2022-08-21T12:58:22.262Z,26.80
2022-08-21T13:00:52.604Z,26.80
2022-08-21T13:03:21.021Z,26.90
2022-08-21T13:05:49.244Z,27.00
2022-08-21T13:08:17.199Z,27.10
2022-08-21T13:10:47.185Z,27.00
2022-08-21T13:13:28.099Z,27.10
2022-08-21T13:16:00.503Z,27.30
2022-08-21T13:18:32.886Z,27.50
2022-08-21T13:21:09.555Z,27.70
2022-08-21T13:23:37.706Z,27.70
2022-08-21T13:26:18.530Z,27.60
2022-08-21T13:28:49.313Z,27.50
2022-08-21T13:31:22.880Z,27.60
2022-08-21T13:33:52.438Z,27.60
2022-08-21T13:36:27.012Z,27.70
2022-08-21T13:38:55.989Z,27.80
2022-08-21T13:41:28.351Z,27.90
2022-08-21T13:44:02.845Z,27.80
2022-08-21T13:46:36.291Z,27.70
2022-08-21T13:49:06.968Z,27.70
2022-08-21T13:51:35.078Z,27.70
2022-08-21T13:54:03.870Z,27.80
2022-08-21T13:56:33.891Z,27.80
2022-08-21T13:59:04.827Z,27.90
2022-08-21T14:01:35.397Z,27.90
2022-08-21T14:04:07.006Z,28.10
2022-08-21T14:06:37.696Z,28.30
2022-08-21T14:09:10.438Z,28.40
2022-08-21T14:11:39.457Z,28.30
2022-08-21T14:14:22.159Z,28.20
2022-08-21T14:16:56.662Z,28.30
2022-08-21T14:19:27.602Z,28.50
2022-08-21T14:21:56.468Z,28.60
2022-08-21T14:24:36.591Z,28.60
2022-08-21T14:27:07.708Z,28.60
2022-08-21T14:29:39.007Z,28.80
2022-08-21T14:32:21.650Z,29.00
2022-08-21T14:34:52.809Z,28.90
2022-08-21T14:37:22.629Z,28.80
2022-08-21T14:39:50.525Z,29.00
2022-08-21T14:42:18.386Z,29.10
2022-08-21T14:44:47.851Z,29.10
2022-08-21T14:47:15.946Z,29.20
2022-08-21T14:49:43.836Z,29.40
2022-08-21T14:52:11.686Z,29.50
2022-08-21T14:54:39.593Z,29.60
2022-08-21T14:57:10.409Z,29.70
2022-08-21T14:59:39.734Z,29.80
2022-08-21T15:02:09.934Z,29.90
2022-08-21T15:04:37.935Z,30.00
2022-08-21T15:07:06.254Z,30.10
2022-08-21T15:09:34.190Z,30.10
2022-08-21T15:12:03.828Z,30.10
2022-08-21T15:14:34.512Z,30.10
2022-08-21T15:17:04.260Z,30.10
2022-08-21T15:19:33.586Z,30.20
2022-08-21T15:22:01.840Z,30.20
2022-08-21T15:24:30.557Z,30.30
2022-08-21T15:27:01.020Z,30.30
2022-08-21T15:29:33.428Z,30.20
2022-08-21T15:32:03.758Z,30.40
2022-08-21T15:34:33.825Z,30.50
2022-08-21T15:37:01.687Z,30.50
2022-08-21T15:39:37.206Z,30.40
2022-08-21T15:42:11.265Z,30.20
2022-08-21T15:44:40.721Z,30.10
2022-08-21T15:47:09.176Z,30.10
2022-08-21T15:49:38.486Z,30.20
2022-08-21T15:52:06.587Z,30.30
2022-08-21T15:54:34.500Z,30.30
2022-08-21T15:57:02.442Z,30.10
2022-08-21T15:59:34.307Z,30.20
2022-08-21T16:02:02.215Z,30.20
2022-08-21T16:04:30.307Z,30.20
2022-08-21T16:07:05.470Z,30.10
2022-08-21T16:09:37.015Z,30.10
2022-08-21T16:12:06.449Z,29.90
2022-08-21T16:14:37.043Z,29.80
2022-08-21T16:17:05.866Z,29.80
2022-08-21T16:19:34.817Z,29.80
2022-08-21T16:22:04.683Z,29.80
2022-08-21T16:24:32.781Z,29.70
2022-08-21T16:27:02.622Z,29.80
2022-08-21T16:29:36.610Z,29.70
2022-08-21T16:32:06.754Z,29.80
2022-08-21T16:34:35.067Z,29.90
2022-08-21T16:37:04.456Z,29.90
2022-08-21T16:39:32.706Z,29.80
2022-08-21T16:42:00.654Z,29.80
2022-08-21T16:44:30.143Z,29.70
2022-08-21T16:46:59.552Z,29.60
2022-08-21T16:49:27.844Z,29.60
2022-08-21T16:51:55.757Z,29.60
2022-08-21T16:54:25.381Z,29.50
2022-08-21T16:56:54.398Z,29.50
2022-08-21T16:59:22.540Z,29.40
2022-08-21T17:01:50.644Z,29.40
2022-08-21T17:04:18.550Z,29.40
2022-08-21T17:06:46.542Z,29.50
2022-08-21T17:09:14.465Z,29.50
2022-08-21T17:11:47.639Z,29.50
2022-08-21T17:14:19.511Z,29.50
2022-08-21T17:16:51.454Z,29.50
2022-08-21T17:19:20.140Z,29.40
2022-08-21T17:21:48.022Z,29.40
2022-08-21T17:24:16.139Z,29.40
2022-08-21T17:26:46.199Z,29.30
2022-08-21T17:29:15.944Z,29.30
2022-08-21T17:31:45.165Z,29.30
2022-08-21T17:34:15.635Z,29.20
2022-08-21T17:36:43.559Z,29.10
2022-08-21T17:39:12.862Z,29.00
2022-08-21T17:41:54.466Z,29.00
2022-08-21T17:44:26.305Z,28.90
2022-08-21T17:46:54.633Z,28.80
2022-08-21T17:49:22.570Z,28.80
2022-08-21T17:51:50.511Z,28.70
2022-08-21T17:54:18.493Z,28.60
2022-08-21T17:56:46.593Z,28.50
2022-08-21T17:59:16.484Z,28.50
2022-08-21T18:01:48.072Z,28.40
2022-08-21T18:04:17.362Z,28.30
2022-08-21T18:06:46.015Z,28.20
2022-08-21T18:09:14.355Z,28.10
2022-08-21T18:11:44.071Z,28.00
2022-08-21T18:14:13.194Z,27.90
2022-08-21T18:16:42.780Z,27.80
2022-08-21T18:19:15.892Z,27.70
2022-08-21T18:21:44.143Z,27.70
2022-08-21T18:24:12.053Z,27.50
2022-08-21T18:26:41.078Z,27.40
2022-08-21T18:29:12.332Z,27.40
2022-08-21T18:31:43.609Z,27.30
2022-08-21T18:34:20.102Z,27.20
2022-08-21T18:36:48.376Z,27.20
2022-08-21T18:39:35.384Z,27.00
2022-08-21T18:42:06.663Z,27.00
2022-08-21T18:44:34.793Z,26.90
2022-08-21T18:47:11.339Z,26.90
2022-08-21T18:49:40.159Z,26.70
2022-08-21T18:52:09.906Z,26.70
2022-08-21T18:57:29.182Z,26.50
2022-08-21T18:59:57.530Z,26.40
2022-08-21T19:02:27.962Z,26.40
2022-08-21T19:04:56.026Z,26.30
2022-08-21T19:07:24.181Z,26.20
2022-08-21T19:10:20.929Z,26.10
2022-08-21T19:12:41.982Z,26.10
2022-08-21T19:15:13.752Z,26.00
2022-08-21T19:17:43.566Z,26.00
2022-08-21T19:20:25.535Z,25.90
2022-08-21T19:22:55.350Z,25.80
2022-08-21T19:28:16.805Z,25.70
2022-08-21T19:30:52.106Z,25.60
2022-08-21T19:33:26.203Z,25.50
2022-08-21T19:35:54.412Z,25.50
2022-08-21T19:38:22.666Z,25.40
2022-08-21T19:40:51.541Z,25.40
2022-08-21T19:43:22.544Z,25.30
2022-08-21T19:45:53.762Z,25.20
2022-08-21T19:48:23.979Z,25.10
2022-08-21T19:50:52.234Z,25.10
2022-08-21T19:53:20.658Z,25.10
2022-08-21T19:55:49.523Z,25.00
2022-08-21T19:58:29.444Z,24.90
2022-08-21T20:00:57.512Z,24.80
2022-08-21T20:03:26.864Z,24.80
2022-08-21T20:05:54.772Z,24.80
2022-08-21T20:08:23.614Z,24.70
2022-08-21T20:10:58.023Z,24.70
2022-08-21T20:13:26.613Z,24.60
2022-08-21T20:15:55.526Z,24.50
2022-08-21T20:18:26.858Z,24.50
2022-08-21T20:20:56.515Z,24.40
2022-08-21T20:23:29.945Z,24.40
2022-08-21T20:25:58.757Z,24.30
2022-08-21T20:28:27.038Z,24.20
2022-08-21T20:30:56.639Z,24.10
2022-08-21T20:33:24.634Z,24.10
2022-08-21T20:35:52.651Z,24.10
2022-08-21T20:38:22.681Z,24.00
2022-08-21T20:40:55.444Z,24.00
2022-08-21T20:43:24.515Z,24.00
2022-08-21T20:45:52.516Z,23.90
2022-08-21T20:48:25.717Z,23.80
2022-08-21T20:51:09.139Z,23.70
2022-08-21T20:53:47.262Z,23.70
2022-08-21T20:56:27.286Z,23.70
2022-08-21T20:59:04.322Z,23.60
2022-08-21T21:01:35.269Z,23.50
2022-08-21T21:04:05.539Z,23.50
2022-08-21T21:06:39.039Z,23.50
2022-08-21T21:09:14.554Z,23.40
2022-08-21T21:14:42.684Z,23.30
2022-08-21T21:17:25.729Z,23.20
2022-08-21T21:20:01.241Z,23.20
2022-08-21T21:22:35.283Z,23.20
2022-08-21T21:25:14.123Z,23.10
2022-08-21T21:27:49.095Z,23.10
2022-08-21T21:30:21.812Z,23.00
2022-08-21T21:32:50.141Z,23.00
2022-08-21T21:35:32.765Z,23.00
2022-08-21T21:38:12.032Z,22.90
2022-08-21T21:40:49.918Z,22.90
2022-08-21T21:43:29.845Z,22.70
2022-08-21T21:46:16.812Z,22.70
2022-08-21T21:49:03.011Z,22.70
2022-08-21T21:51:43.458Z,22.70
2022-08-21T21:54:20.383Z,22.60
2022-08-21T21:57:03.172Z,22.60
2022-08-21T21:59:52.225Z,22.50
2022-08-21T22:02:32.855Z,22.50
2022-08-21T22:05:07.286Z,22.40
2022-08-21T22:07:41.164Z,22.30
2022-08-21T22:10:19.630Z,22.30
2022-08-21T22:13:11.075Z,22.30
2022-08-21T22:15:41.342Z,22.20
2022-08-21T22:18:11.841Z,22.20
2022-08-21T22:20:44.146Z,22.20
2022-08-21T22:23:17.274Z,22.10
2022-08-21T22:25:51.188Z,22.10
2022-08-21T22:28:25.928Z,22.10
2022-08-21T22:30:57.537Z,22.10
2022-08-21T22:33:27.011Z,22.00
2022-08-21T22:35:58.808Z,22.00
2022-08-21T22:38:33.769Z,21.90
2022-08-21T22:41:14.935Z,21.90
2022-08-21T22:43:56.559Z,21.90
2022-08-21T22:46:31.728Z,21.90
2022-08-21T22:49:05.298Z,21.80
2022-08-21T22:51:38.858Z,21.80
2022-08-21T22:54:16.774Z,21.70
2022-08-21T22:57:00.545Z,21.70
2022-08-21T23:02:29.830Z,21.60
2022-08-21T23:05:00.331Z,21.60
2022-08-21T23:07:35.219Z,21.60
2022-08-21T23:10:21.039Z,21.50
2022-08-21T23:12:52.147Z,21.50
2022-08-21T23:15:24.072Z,21.50
2022-08-21T23:18:01.887Z,21.50
2022-08-21T23:20:39.570Z,21.50
2022-08-21T23:23:15.359Z,21.50
2022-08-21T23:26:17.670Z,21.50
2022-08-21T23:29:06.090Z,21.40
2022-08-21T23:31:46.055Z,21.30
2022-08-21T23:34:22.790Z,21.30
2022-08-21T23:37:48.419Z,21.20
2022-08-21T23:40:39.057Z,21.20
2022-08-21T23:43:33.126Z,21.20
2022-08-21T23:46:11.336Z,21.20
2022-08-21T23:48:49.339Z,21.10
2022-08-21T23:51:28.574Z,21.10
2022-08-21T23:54:07.117Z,21.00
2022-08-21T23:56:51.438Z,21.00
2022-08-21T23:59:31.809Z,20.90
